createdAt,value
2017-12-13T00:01:50.849Z,11.80
2017-12-13T00:04:20.159Z,12.77
2017-12-13T00:06:48.220Z,15.82
2017-12-13T00:09:16.289Z,11.55
2017-12-13T00:11:44.333Z,14.40
2017-12-13T00:14:13.145Z,11.12
2017-12-13T00:16:41.213Z,12.15
2017-12-13T00:19:09.296Z,10.00
2017-12-13T00:21:37.468Z,9.98
2017-12-13T00:24:05.523Z,12.40
2017-12-13T00:26:34.328Z,11.30
2017-12-13T00:29:02.393Z,11.43
2017-12-13T00:31:30.477Z,14.93
2017-12-13T00:33:58.529Z,13.43
2017-12-13T00:36:27.030Z,10.02
2017-12-13T00:38:55.085Z,11.77
2017-12-13T00:41:23.128Z,10.63
2017-12-13T00:43:51.225Z,17.12
2017-12-13T00:46:19.325Z,14.60
2017-12-13T00:48:47.368Z,10.55
2017-12-13T00:51:15.461Z,12.48
2017-12-13T00:53:43.633Z,10.02
2017-12-13T00:56:11.685Z,11.68
2017-12-13T00:58:40.505Z,12.37
2017-12-13T01:01:08.573Z,13.55
2017-12-13T01:03:36.636Z,12.77
2017-12-13T01:06:04.700Z,10.02
2017-12-13T01:08:32.751Z,10.52
2017-12-13T01:11:01.562Z,10.52
2017-12-13T01:13:29.646Z,13.27
2017-12-13T01:15:57.816Z,11.40
2017-12-13T01:18:25.892Z,13.55
2017-12-13T01:20:53.940Z,11.05
2017-12-13T01:23:22.032Z,13.18
2017-12-13T01:25:50.104Z,12.07
2017-12-13T01:28:18.186Z,18.98
2017-12-13T01:30:46.232Z,10.05
2017-12-13T01:33:14.325Z,11.77
2017-12-13T01:35:54.377Z,12.37
2017-12-13T01:38:22.445Z,13.40
2017-12-13T01:40:50.516Z,15.15
2017-12-13T01:43:18.569Z,13.20
2017-12-13T01:45:46.637Z,12.48
2017-12-13T01:48:14.710Z,12.02
2017-12-13T01:50:43.625Z,13.35
2017-12-13T01:53:11.685Z,12.60
2017-12-13T01:55:39.768Z,11.95
2017-12-13T01:58:07.829Z,11.48
2017-12-13T02:00:35.916Z,10.48
2017-12-13T02:03:04.084Z,11.63
2017-12-13T02:05:32.156Z,10.57
2017-12-13T02:08:00.229Z,11.57
2017-12-13T02:10:28.302Z,12.50
2017-12-13T02:12:56.365Z,11.27
2017-12-13T02:15:24.417Z,8.68
2017-12-13T02:17:53.337Z,9.77
2017-12-13T02:20:21.381Z,10.02
2017-12-13T02:22:50.198Z,12.75
2017-12-13T02:25:18.261Z,10.57
2017-12-13T02:27:46.345Z,13.07
2017-12-13T02:30:14.409Z,10.13
2017-12-13T02:32:42.480Z,10.13
2017-12-13T02:35:10.925Z,9.52
2017-12-13T02:37:38.990Z,15.13
2017-12-13T02:40:19.099Z,10.55
2017-12-13T02:42:47.146Z,9.77
2017-12-13T02:45:15.201Z,10.10
2017-12-13T02:47:44.017Z,11.20
2017-12-13T02:50:12.077Z,11.65
2017-12-13T02:52:40.142Z,12.57
2017-12-13T02:55:09.502Z,10.35
2017-12-13T02:57:37.549Z,9.32
2017-12-13T03:00:05.618Z,11.47
2017-12-13T03:02:33.669Z,14.48
2017-12-13T03:05:01.712Z,11.88
2017-12-13T03:07:30.582Z,9.43
2017-12-13T03:09:58.596Z,8.33
2017-12-13T03:12:26.697Z,9.45
2017-12-13T03:14:54.861Z,9.20
2017-12-13T03:17:23.037Z,11.52
2017-12-13T03:19:51.094Z,9.00
2017-12-13T03:22:19.144Z,10.30
2017-12-13T03:24:47.972Z,9.45
2017-12-13T03:27:16.045Z,10.13
2017-12-13T03:29:44.113Z,9.05
2017-12-13T03:32:12.185Z,8.63
2017-12-13T03:34:45.822Z,14.53
2017-12-13T03:37:13.966Z,9.98
2017-12-13T03:39:42.014Z,7.87
2017-12-13T03:42:10.101Z,15.00
2017-12-13T03:44:38.565Z,8.25
2017-12-13T03:47:06.619Z,12.73
2017-12-13T03:49:34.638Z,9.80
2017-12-13T03:52:02.801Z,8.40
2017-12-13T03:54:31.698Z,6.95
2017-12-13T03:56:59.756Z,11.10
2017-12-13T03:59:34.392Z,11.80
2017-12-13T04:02:02.869Z,9.18
2017-12-13T04:04:31.038Z,8.80
2017-12-13T04:06:59.089Z,9.25
2017-12-13T04:09:28.009Z,7.57
2017-12-13T04:11:56.069Z,10.43
2017-12-13T04:14:24.158Z,11.02
2017-12-13T04:16:52.205Z,10.50
2017-12-13T04:19:20.298Z,8.90
2017-12-13T04:21:48.373Z,8.02
2017-12-13T04:24:17.263Z,12.30
2017-12-13T04:26:45.315Z,13.73
2017-12-13T04:29:13.369Z,10.85
2017-12-13T04:31:42.200Z,11.77
2017-12-13T04:34:11.796Z,8.27
2017-12-13T04:36:39.853Z,7.82
2017-12-13T04:39:07.896Z,9.30
2017-12-13T04:41:36.017Z,8.75
2017-12-13T04:44:04.070Z,8.80
2017-12-13T04:46:32.166Z,11.73
2017-12-13T04:49:00.226Z,8.35
2017-12-13T04:51:28.301Z,9.02
2017-12-13T04:53:57.870Z,8.00
2017-12-13T04:56:26.705Z,8.98
2017-12-13T04:58:54.770Z,10.23
2017-12-13T05:01:22.840Z,10.95
2017-12-13T05:03:50.897Z,13.60
2017-12-13T05:06:18.974Z,11.20
2017-12-13T05:08:47.023Z,13.27
2017-12-13T05:11:15.837Z,9.93
2017-12-13T05:13:43.916Z,9.70
2017-12-13T05:16:13.222Z,14.25
2017-12-13T05:18:41.393Z,11.00
2017-12-13T05:21:09.577Z,11.45
2017-12-13T05:23:37.637Z,9.13
2017-12-13T05:26:05.718Z,10.52
2017-12-13T05:28:33.785Z,12.07
2017-12-13T05:31:01.890Z,10.48
2017-12-13T05:33:30.035Z,15.50
2017-12-13T05:35:58.270Z,12.13
2017-12-13T05:38:26.273Z,11.52
2017-12-13T05:40:54.346Z,10.10
2017-12-13T05:43:22.801Z,12.43
2017-12-13T05:45:52.048Z,12.83
2017-12-13T05:48:20.098Z,19.65
2017-12-13T05:50:48.161Z,13.50
2017-12-13T05:53:16.246Z,13.35
2017-12-13T05:55:44.317Z,12.05
2017-12-13T05:58:12.478Z,13.90
2017-12-13T06:00:40.562Z,12.68
2017-12-13T06:03:08.617Z,13.90
2017-12-13T06:05:38.185Z,15.60
2017-12-13T06:08:07.661Z,13.18
2017-12-13T06:10:35.723Z,11.43
2017-12-13T06:13:04.920Z,15.80
2017-12-13T06:15:34.429Z,11.43
2017-12-13T06:18:03.530Z,15.18
2017-12-13T06:20:31.569Z,9.88
2017-12-13T06:22:59.638Z,13.62
2017-12-13T06:25:28.451Z,9.18
2017-12-13T06:27:57.872Z,10.68
2017-12-13T06:30:26.601Z,12.23
2017-12-13T06:32:55.049Z,9.30
2017-12-13T06:35:23.197Z,14.50
2017-12-13T09:20:31.750Z,10.68
2017-12-13T09:22:59.822Z,6.40
2017-12-13T09:25:28.271Z,7.23
2017-12-13T09:27:56.375Z,5.60
2017-12-13T09:30:25.150Z,9.55
2017-12-13T09:32:53.193Z,6.15
2017-12-13T09:35:21.267Z,7.27
2017-12-13T09:37:49.314Z,5.70
2017-12-13T09:40:18.121Z,6.72
2017-12-13T09:42:46.185Z,7.53
2017-12-13T09:45:14.229Z,6.85
2017-12-13T09:47:42.273Z,7.87
2017-12-13T09:50:11.442Z,9.00
2017-12-13T09:52:39.486Z,8.60
2017-12-13T09:55:08.314Z,8.40
2017-12-13T09:57:36.757Z,7.87
2017-12-13T10:00:05.589Z,6.90
2017-12-13T10:02:33.638Z,6.28
2017-12-13T10:07:31.261Z,12.52
2017-12-13T10:09:59.311Z,9.00
2017-12-13T10:12:27.382Z,6.90
2017-12-13T10:14:55.421Z,8.55
2017-12-13T10:17:23.441Z,6.80
2017-12-13T10:19:51.513Z,5.45
2017-12-13T10:22:19.529Z,9.60
2017-12-13T10:24:48.336Z,5.97
2017-12-13T10:27:16.402Z,5.65
2017-12-13T10:29:44.445Z,6.62
2017-12-13T10:34:41.137Z,5.40
2017-12-13T10:37:09.218Z,4.90
2017-12-13T10:39:38.037Z,6.10
2017-12-13T10:44:33.654Z,5.87
2017-12-13T10:47:01.697Z,4.47
2017-12-13T10:59:20.601Z,4.95
2017-12-13T11:01:48.621Z,4.45
2017-12-13T11:04:16.685Z,3.87
2017-12-13T11:06:44.741Z,4.22
2017-12-13T11:09:12.786Z,4.37
2017-12-13T11:11:41.616Z,4.40
2017-12-13T11:14:09.669Z,10.73
2017-12-13T11:16:37.718Z,5.10
2017-12-13T11:19:06.578Z,5.07
2017-12-13T11:21:34.581Z,6.10
2017-12-13T11:24:03.410Z,4.65
2017-12-13T11:26:31.465Z,5.40
2017-12-13T11:28:59.520Z,5.40
2017-12-13T11:31:28.345Z,4.78
2017-12-13T11:33:56.410Z,5.72
2017-12-13T11:36:24.453Z,3.60
2017-12-13T11:38:52.513Z,4.37
2017-12-13T11:41:21.332Z,4.53
2017-12-13T11:43:49.373Z,4.82
2017-12-13T11:46:18.578Z,6.65
2017-12-13T11:48:47.415Z,5.10
2017-12-13T11:51:15.425Z,3.70
2017-12-13T11:53:44.236Z,4.55
2017-12-13T11:56:12.301Z,5.97
2017-12-13T11:58:41.129Z,4.32
2017-12-13T12:01:09.198Z,7.72
2017-12-13T12:03:37.245Z,5.20
2017-12-13T12:06:05.285Z,5.12
2017-12-13T12:08:33.342Z,4.18
2017-12-13T12:11:01.414Z,5.87
2017-12-13T12:13:29.470Z,4.03
2017-12-13T12:15:58.273Z,6.95
2017-12-13T12:18:27.692Z,4.95
2017-12-13T12:20:56.410Z,3.35
2017-12-13T12:23:24.470Z,6.90
2017-12-13T12:25:53.367Z,4.80
2017-12-13T12:28:21.357Z,9.60
2017-12-13T12:30:50.254Z,6.60
2017-12-13T12:35:46.711Z,4.25
2017-12-13T12:40:43.428Z,4.07
2017-12-13T12:43:11.449Z,6.40
2017-12-13T12:45:39.468Z,3.77
2017-12-13T12:48:08.397Z,4.90
2017-12-13T13:07:52.041Z,3.53
2017-12-13T13:10:20.105Z,4.55
2017-12-13T13:12:48.145Z,4.90
2017-12-13T13:15:16.975Z,3.90
2017-12-13T13:17:45.149Z,3.83
2017-12-13T13:20:13.326Z,4.95
2017-12-13T13:22:41.402Z,4.30
2017-12-13T13:25:09.877Z,4.95
2017-12-13T13:27:37.941Z,9.18
2017-12-13T13:30:05.997Z,3.15
2017-12-13T13:32:34.810Z,6.57
2017-12-13T13:35:02.866Z,4.47
2017-12-13T13:37:30.962Z,5.60
2017-12-13T13:42:26.590Z,5.72
2017-12-13T13:44:54.609Z,12.10
2017-12-13T13:47:22.729Z,6.80
2017-12-13T13:49:50.782Z,3.80
2017-12-13T13:52:19.286Z,9.75
2017-12-13T13:54:47.357Z,4.40
2017-12-13T13:57:16.538Z,3.75
2017-12-13T13:59:44.593Z,4.47
2017-12-13T14:02:13.417Z,3.75
2017-12-13T14:04:42.722Z,3.58
2017-12-13T14:07:10.765Z,6.30
2017-12-13T14:09:40.172Z,6.25
2017-12-13T14:12:08.142Z,7.18
2017-12-13T14:14:36.229Z,4.03
2017-12-13T14:17:04.278Z,5.15
2017-12-13T14:19:33.749Z,6.97
2017-12-13T14:22:02.473Z,5.07
2017-12-13T14:36:55.783Z,4.03
2017-12-13T14:39:23.810Z,5.60
2017-12-13T14:41:53.006Z,4.35
2017-12-13T14:44:21.058Z,7.03
2017-12-13T14:46:50.472Z,4.95
2017-12-13T14:49:19.797Z,4.50
2017-12-13T14:51:49.101Z,6.35
2017-12-13T14:54:17.062Z,8.70
2017-12-13T14:56:45.125Z,4.37
2017-12-13T14:59:14.541Z,5.10
2017-12-13T15:01:43.726Z,5.50
2017-12-13T15:04:11.796Z,6.70
2017-12-13T15:06:41.353Z,6.57
2017-12-13T15:11:39.613Z,5.93
2017-12-13T15:14:07.977Z,7.25
2017-12-13T15:16:36.149Z,5.37
2017-12-13T15:19:04.970Z,7.00
2017-12-13T15:33:55.046Z,6.80
2017-12-13T15:36:23.491Z,9.27
2017-12-13T15:38:52.318Z,5.45
2017-12-13T15:41:20.453Z,6.25
2017-12-13T15:43:48.497Z,4.93
2017-12-13T15:46:17.425Z,6.45
2017-12-13T15:48:45.469Z,5.22
2017-12-13T15:51:14.310Z,7.60
2017-12-13T15:53:42.350Z,9.45
2017-12-13T15:56:10.410Z,7.80
2017-12-13T15:58:39.223Z,7.32
2017-12-13T16:01:07.273Z,6.22
2017-12-13T16:03:35.317Z,7.57
2017-12-13T16:06:04.141Z,7.28
2017-12-13T16:08:32.200Z,7.57
2017-12-13T16:11:01.381Z,7.93
2017-12-13T16:13:30.214Z,7.15
2017-12-13T16:15:58.309Z,7.53
2017-12-13T16:18:26.445Z,8.52
2017-12-13T16:20:55.653Z,7.00
2017-12-13T16:23:23.716Z,7.35
2017-12-13T16:25:52.153Z,8.57
2017-12-13T16:28:20.269Z,9.27
2017-12-13T16:30:48.708Z,8.55
2017-12-13T16:33:16.737Z,7.10
2017-12-13T16:35:44.777Z,6.60
2017-12-13T16:38:12.841Z,5.25
2017-12-13T16:43:09.887Z,7.37
2017-12-13T16:45:39.312Z,6.35
2017-12-13T16:48:08.617Z,6.85
2017-12-13T16:50:36.590Z,7.72
2017-12-13T16:53:06.024Z,6.25
2017-12-13T16:55:34.750Z,8.73
2017-12-13T16:58:03.211Z,7.05
2017-12-13T21:07:26.638Z,4.22
2017-12-13T21:09:55.448Z,3.62
